Time;durP1;ratioP1;P1;durP2;ratioP2;P2;SDS_P1;SDS_P2;PMS_P1;PMS_P2;Temp;Humidity;BMP_temperature;BMP_pressure;BME280_temperature;BME280_humidity;BME280_pressure;Samples;Min_cycle;Max_cycle;Signal;HPM_P1;HPM_P2
2021/08/20 00:00:07;;;;;;;4.82;3.37;;;15.70;99.90;;;;;;6719673;88;20548;-78
2021/08/20 00:10:08;;;;;;;5.90;3.78;;;15.60;99.90;;;;;;6719561;88;20286;-78
2021/08/20 00:20:09;;;;;;;5.78;3.40;;;15.50;99.90;;;;;;6719986;88;20279;-78
2021/08/20 00:30:10;;;;;;;5.22;3.50;;;15.30;99.90;;;;;;6719765;88;20220;-78
2021/08/20 00:40:11;;;;;;;7.20;3.25;;;15.40;99.90;;;;;;6719994;88;20169;-78
2021/08/20 00:50:12;;;;;;;5.50;3.33;;;15.40;99.90;;;;;;6732476;88;20205;-78
2021/08/20 01:00:13;;;;;;;5.40;3.07;;;15.40;99.90;;;;;;6737143;88;20195;-78
2021/08/20 01:10:15;;;;;;;4.93;3.30;;;15.30;99.90;;;;;;6737192;88;20535;-77
2021/08/20 01:20:16;;;;;;;4.43;3.00;;;15.40;99.90;;;;;;6722845;77;20189;-75
2021/08/20 01:30:16;;;;;;;4.55;2.62;;;15.60;99.90;;;;;;6709339;88;21014;-76
2021/08/20 01:40:17;;;;;;;5.32;2.70;;;15.70;99.90;;;;;;6705379;88;20178;-75
2021/08/20 01:50:18;;;;;;;4.10;2.97;;;15.70;99.90;;;;;;6712021;88;20229;-75
2021/08/20 02:00:18;;;;;;;4.60;2.78;;;15.70;99.90;;;;;;6707768;88;20198;-75
2021/08/20 02:10:19;;;;;;;5.87;3.08;;;15.80;99.90;;;;;;6702733;88;20749;-76
2021/08/20 02:20:20;;;;;;;6.35;3.80;;;15.80;99.90;;;;;;6699403;88;20626;-75
2021/08/20 02:30:20;;;;;;;9.05;3.70;;;15.80;99.90;;;;;;6696525;88;20227;-75
2021/08/20 02:40:21;;;;;;;5.60;3.90;;;15.70;99.90;;;;;;6702893;88;20212;-75
2021/08/20 02:50:22;;;;;;;6.57;3.70;;;15.50;99.90;;;;;;6697898;88;20202;-75
2021/08/20 03:00:22;;;;;;;6.57;3.80;;;15.50;99.90;;;;;;6705467;88;20232;-76
2021/08/20 03:10:23;;;;;;;6.20;3.50;;;15.50;99.90;;;;;;6710618;88;20207;-74
2021/08/20 03:20:23;;;;;;;7.80;3.92;;;15.30;99.90;;;;;;6712606;88;20914;-75
2021/08/20 03:30:24;;;;;;;7.30;4.10;;;15.40;99.90;;;;;;6713426;88;20199;-75
2021/08/20 03:40:26;;;;;;;7.28;4.60;;;15.40;99.90;;;;;;6699973;88;20557;-75
2021/08/20 03:50:26;;;;;;;7.03;5.05;;;15.40;99.90;;;;;;6706013;88;20327;-75
2021/08/20 04:00:27;;;;;;;9.45;5.57;;;15.50;99.90;;;;;;6713208;88;20245;-75
2021/08/20 04:10:28;;;;;;;8.25;4.87;;;15.50;99.90;;;;;;6711991;88;20235;-75
2021/08/20 04:20:29;;;;;;;8.45;5.15;;;15.70;99.90;;;;;;6702284;88;20229;-76
2021/08/20 04:30:30;;;;;;;8.07;4.82;;;15.60;99.90;;;;;;6695273;88;20200;-75
2021/08/20 04:40:30;;;;;;;7.18;4.85;;;15.50;99.90;;;;;;6695231;88;20195;-75
2021/08/20 04:50:31;;;;;;;7.28;4.85;;;15.50;99.90;;;;;;6695669;88;20692;-75
2021/08/20 05:00:31;;;;;;;8.00;4.27;;;15.50;99.90;;;;;;6710153;88;20200;-75
2021/08/20 05:10:32;;;;;;;7.78;4.30;;;15.60;99.90;;;;;;6707937;88;20198;-75
2021/08/20 05:20:33;;;;;;;7.53;4.53;;;15.70;99.90;;;;;;6695374;88;20650;-76
2021/08/20 05:30:34;;;;;;;8.82;4.20;;;15.70;99.90;;;;;;6706374;88;20186;-75
2021/08/20 05:40:34;;;;;;;5.37;3.90;;;15.90;99.90;;;;;;6704358;88;20195;-74
2021/08/20 05:50:35;;;;;;;5.12;3.80;;;16.10;99.90;;;;;;6697486;88;20198;-75
2021/08/20 06:00:36;;;;;;;9.18;3.83;;;16.10;99.90;;;;;;6698176;88;20653;-78
2021/08/20 06:10:37;;;;;;;6.78;4.32;;;16.00;99.90;;;;;;6699123;88;20251;-79
2021/08/20 06:20:37;;;;;;;8.73;4.00;;;16.00;99.90;;;;;;6698779;88;20225;-76
2021/08/20 06:30:44;;;;;;;10.50;5.13;;;16.40;99.90;;;;;;6698476;88;21036;-74
2021/08/20 06:40:45;;;;;;;6.82;4.00;;;16.90;99.90;;;;;;6697996;88;20505;-75
2021/08/20 06:50:45;;;;;;;6.65;3.80;;;17.40;99.90;;;;;;6698295;88;20185;-76
2021/08/20 07:00:46;;;;;;;4.85;3.70;;;17.70;99.90;;;;;;6694053;88;20615;-75
2021/08/20 07:10:46;;;;;;;6.97;3.97;;;17.90;99.90;;;;;;6689774;88;20206;-75
2021/08/20 07:20:47;;;;;;;6.43;3.85;;;18.40;99.90;;;;;;6705934;77;20206;-77
2021/08/20 07:30:47;;;;;;;6.78;3.62;;;18.30;99.90;;;;;;6721247;88;20194;-77
2021/08/20 07:40:48;;;;;;;7.12;3.67;;;18.40;99.90;;;;;;6712802;88;20194;-77
2021/08/20 07:50:48;;;;;;;6.55;3.97;;;18.80;99.90;;;;;;6711380;88;20237;-77
2021/08/20 08:00:49;;;;;;;5.60;3.35;;;19.10;99.90;;;;;;6706627;88;20346;-78
2021/08/20 08:10:50;;;;;;;4.00;2.70;;;19.90;99.90;;;;;;6714206;88;20310;-78
2021/08/20 08:20:50;;;;;;;3.25;2.30;;;20.90;99.90;;;;;;6706639;88;20293;-77
2021/08/20 08:30:51;;;;;;;6.55;3.03;;;20.80;99.90;;;;;;6713772;88;20825;-77
2021/08/20 08:40:52;;;;;;;5.20;2.83;;;22.30;99.90;;;;;;6710027;88;20182;-78
2021/08/20 08:50:53;;;;;;;3.20;1.80;;;22.90;99.90;;;;;;6709069;88;20247;-79
2021/08/20 09:00:54;;;;;;;3.35;2.20;;;23.20;99.90;;;;;;6714669;88;20181;-78
2021/08/20 09:10:57;;;;;;;4.60;2.10;;;22.80;99.90;;;;;;6719802;88;20253;-78
2021/08/20 09:20:57;;;;;;;3.80;2.40;;;22.50;99.90;;;;;;6732237;88;20760;-78
2021/08/20 09:31:05;;;;;;;3.90;2.20;;;22.90;99.90;;;;;;6718108;88;20178;-78
2021/08/20 09:41:13;;;;;;;5.40;2.10;;;23.40;99.90;;;;;;6721699;88;20171;-79
2021/08/20 09:51:37;;;;;;;3.58;1.70;;;22.80;99.90;;;;;;6743209;88;20185;-79
2021/08/20 10:01:45;;;;;;;4.03;1.90;;;21.30;99.90;;;;;;6736263;88;20214;-78
2021/08/20 10:11:48;;;;;;;3.62;1.77;;;19.90;99.90;;;;;;6711834;88;20641;-79
2021/08/20 10:21:49;;;;;;;3.42;1.80;;;19.80;99.90;;;;;;6710817;88;20246;-79
2021/08/20 10:31:50;;;;;;;2.03;0.80;;;20.90;99.90;;;;;;6716302;88;20220;-78
2021/08/20 10:42:15;;;;;;;1.08;0.50;;;21.30;99.90;;;;;;6743495;88;20652;-79
2021/08/20 10:52:23;;;;;;;1.05;0.50;;;21.80;99.90;;;;;;6722122;88;21779;-79
2021/08/20 11:02:27;;;;;;;1.25;0.60;;;23.30;99.90;;;;;;6721095;88;20213;-79
2021/08/20 11:12:52;;;;;;;2.47;1.02;;;24.10;99.90;;;;;;6729271;88;20174;-79
2021/08/20 11:23:08;;;;;;;3.20;1.30;;;23.40;99.90;;;;;;6730388;88;20231;-78
2021/08/20 11:33:29;;;;;;;2.05;1.23;;;22.60;99.90;;;;;;6732858;88;20196;-79
2021/08/20 11:43:32;;;;;;;2.70;1.40;;;21.30;99.90;;;;;;6734652;88;20260;-79
2021/08/20 11:53:33;;;;;;;3.10;1.40;;;20.80;99.90;;;;;;6731238;88;20205;-78
2021/08/20 12:03:35;;;;;;;3.00;1.10;;;21.50;99.90;;;;;;6719690;88;20202;-78
2021/08/20 12:13:45;;;;;;;1.70;1.05;;;21.80;99.90;;;;;;6721821;88;20503;-77
2021/08/20 12:24:00;;;;;;;1.60;1.08;;;20.90;99.90;;;;;;6720505;88;20226;-78
2021/08/20 12:34:01;;;;;;;;;;;21.10;99.90;;;;;;6723886;88;20654;-78
2021/08/20 12:44:02;;;;;;;1.92;0.80;;;21.00;99.90;;;;;;6729532;88;20053;-78
2021/08/20 12:54:11;;;;;;;1.10;0.50;;;20.80;99.90;;;;;;6714930;88;20185;-78
2021/08/20 13:04:12;;;;;;;0.95;0.40;;;21.50;99.90;;;;;;6732677;88;20338;-78
2021/08/20 13:14:12;;;;;;;0.93;0.50;;;23.20;99.90;;;;;;6726550;88;20190;-78
2021/08/20 13:24:13;;;;;;;3.90;0.73;;;22.80;99.90;;;;;;6731161;88;20335;-78
2021/08/20 13:34:13;;;;;;;1.37;0.50;;;23.00;99.90;;;;;;6731142;88;20309;-78
2021/08/20 13:44:14;;;;;;;1.10;0.60;;;23.30;99.90;;;;;;6731347;88;20194;-78
2021/08/20 13:54:14;;;;;;;2.00;0.60;;;23.90;99.90;;;;;;6732773;88;20213;-79
2021/08/20 14:04:15;;;;;;;1.40;0.80;;;24.90;99.90;;;;;;6731821;88;20189;-78
2021/08/20 14:14:16;;;;;;;3.00;1.05;;;25.20;99.90;;;;;;6735389;88;20709;-78
2021/08/20 14:24:16;;;;;;;3.40;0.77;;;25.80;99.90;;;;;;6730659;88;20197;-78
2021/08/20 14:34:17;;;;;;;3.33;0.80;;;26.10;99.90;;;;;;6737860;88;20186;-80
2021/08/20 14:44:18;;;;;;;1.55;0.82;;;26.00;99.90;;;;;;6731199;88;20181;-77
2021/08/20 14:54:18;;;;;;;1.70;0.80;;;24.90;99.90;;;;;;6736990;88;20198;-78
2021/08/20 15:04:19;;;;;;;1.77;0.60;;;25.30;99.90;;;;;;6727196;88;20268;-77
2021/08/20 15:14:20;;;;;;;1.45;0.80;;;24.60;99.90;;;;;;6731845;88;20214;-77
2021/08/20 15:24:20;;;;;;;3.47;0.62;;;24.30;99.90;;;;;;6735395;88;20185;-77
2021/08/20 15:34:21;;;;;;;1.98;0.98;;;24.70;99.90;;;;;;6735681;88;20660;-77
2021/08/20 15:44:21;;;;;;;3.10;1.17;;;24.40;99.90;;;;;;6729904;88;20629;-77
2021/08/20 15:54:23;;;;;;;2.97;1.20;;;24.20;99.90;;;;;;6727874;88;20253;-77
2021/08/20 16:04:24;;;;;;;3.58;1.12;;;24.10;99.90;;;;;;6728237;88;20304;-77
2021/08/20 16:14:24;;;;;;;5.73;1.27;;;23.80;99.90;;;;;;6728261;88;20198;-77
2021/08/20 16:24:25;;;;;;;3.45;1.50;;;23.50;99.90;;;;;;6726520;88;20588;-77
2021/08/20 16:34:25;;;;;;;2.75;1.35;;;23.40;99.90;;;;;;6734191;88;20186;-78
2021/08/20 16:44:26;;;;;;;3.03;1.20;;;23.30;99.90;;;;;;6734446;88;20212;-77
2021/08/20 16:54:27;;;;;;;3.45;1.00;;;23.00;99.90;;;;;;6721539;77;20416;-77
2021/08/20 17:04:27;;;;;;;2.70;1.10;;;22.70;99.90;;;;;;6719107;88;20186;-74
2021/08/20 17:14:28;;;;;;;2.75;1.20;;;22.90;99.90;;;;;;6723819;88;20657;-76
2021/08/20 17:24:28;;;;;;;2.43;1.20;;;22.60;99.90;;;;;;6723319;88;20177;-78
2021/08/20 17:34:29;;;;;;;2.90;1.23;;;22.60;99.90;;;;;;6718345;88;20523;-76
2021/08/20 17:44:30;;;;;;;2.30;1.20;;;22.40;99.90;;;;;;6712562;88;20229;-76
2021/08/20 17:54:31;;;;;;;3.90;1.50;;;22.40;99.90;;;;;;6710362;88;20621;-76
2021/08/20 18:04:35;;;;;;;4.15;1.30;;;22.10;99.90;;;;;;6712240;88;20602;-77
2021/08/20 18:14:37;;;;;;;1.92;1.30;;;21.80;99.90;;;;;;6714169;88;20699;-75
2021/08/20 18:24:37;;;;;;;2.97;1.40;;;21.60;99.90;;;;;;6718278;88;20629;-76
2021/08/20 18:34:38;;;;;;;4.93;2.00;;;21.40;99.90;;;;;;6715898;88;20324;-76
2021/08/20 18:44:38;;;;;;;6.10;2.00;;;21.10;99.90;;;;;;6708870;88;20185;-76
2021/08/20 18:54:41;;;;;;;4.27;2.10;;;20.90;99.90;;;;;;6724644;88;20211;-76
2021/08/20 19:04:41;;;;;;;6.03;2.17;;;20.60;99.90;;;;;;6714976;88;20209;-77
2021/08/20 19:14:42;;;;;;;6.53;1.95;;;20.40;99.90;;;;;;6717890;88;20412;-77
2021/08/20 19:24:42;;;;;;;3.80;1.70;;;20.30;99.90;;;;;;6712683;88;20353;-76
2021/08/20 19:34:43;;;;;;;4.82;2.05;;;19.90;99.90;;;;;;6721190;88;21012;-75
2021/08/20 19:44:44;;;;;;;3.50;1.60;;;19.40;99.90;;;;;;6707810;88;20257;-76
2021/08/20 19:54:44;;;;;;;4.15;1.80;;;19.10;99.90;;;;;;6709872;88;20504;-76
2021/08/20 20:04:45;;;;;;;5.75;2.00;;;19.20;99.90;;;;;;6707782;88;20190;-76
2021/08/20 20:14:46;;;;;;;4.60;1.80;;;18.90;99.90;;;;;;6707947;88;20204;-75
2021/08/20 20:24:47;;;;;;;4.37;2.00;;;18.70;99.90;;;;;;6709095;88;20814;-76
2021/08/20 20:34:47;;;;;;;2.95;1.73;;;18.60;99.90;;;;;;6708969;88;20211;-76
2021/08/20 20:44:48;;;;;;;3.42;2.10;;;18.20;99.90;;;;;;6717841;88;20194;-75
2021/08/20 20:54:48;;;;;;;4.82;2.25;;;18.10;99.90;;;;;;6714321;88;20211;-75
2021/08/20 21:04:49;;;;;;;5.93;2.37;;;17.90;99.90;;;;;;6716562;88;20223;-76
2021/08/20 21:14:50;;;;;;;5.73;2.60;;;17.70;99.90;;;;;;6714923;88;20207;-75
2021/08/20 21:24:50;;;;;;;6.87;3.37;;;17.50;99.90;;;;;;6709566;88;20534;-75
2021/08/20 21:34:52;;;;;;;5.93;2.30;;;17.40;99.90;;;;;;6704214;85;27951;-76
2021/08/20 21:44:52;;;;;;;5.80;2.47;;;17.30;99.90;;;;;;6720292;88;20598;-77
2021/08/20 21:54:53;;;;;;;3.67;2.20;;;17.30;99.90;;;;;;6692086;88;20212;-77
2021/08/20 22:04:53;;;;;;;4.18;2.40;;;17.10;99.90;;;;;;6697342;88;20250;-77
2021/08/20 22:14:54;;;;;;;5.25;2.60;;;17.00;99.90;;;;;;6700939;88;20249;-76
2021/08/20 22:24:54;;;;;;;4.50;2.50;;;17.00;99.90;;;;;;6698454;88;20191;-76
2021/08/20 22:34:55;;;;;;;5.07;2.40;;;17.00;99.90;;;;;;6695310;88;20195;-75
2021/08/20 22:44:55;;;;;;;5.00;2.40;;;16.80;99.90;;;;;;6697457;88;21167;-77
2021/08/20 22:54:56;;;;;;;4.78;2.40;;;16.50;99.90;;;;;;6693614;88;20265;-76
2021/08/20 23:04:56;;;;;;;5.72;2.70;;;16.60;99.90;;;;;;6685506;88;20191;-77
2021/08/20 23:14:57;;;;;;;5.47;2.83;;;16.30;99.90;;;;;;6690019;88;20336;-77
2021/08/20 23:25:00;;;;;;;5.07;2.83;;;16.30;99.90;;;;;;6692583;88;20273;-77
2021/08/20 23:35:02;;;;;;;6.60;2.95;;;16.40;99.90;;;;;;6688209;88;21011;-77
2021/08/20 23:45:03;;;;;;;7.82;3.10;;;16.20;99.90;;;;;;6688915;88;20227;-77
2021/08/20 23:55:04;;;;;;;6.00;3.20;;;16.20;99.90;;;;;;6681505;88;20330;-77
